»·PEaware :: N256Z KLAM-KROW

N256Z :: KLAM-KROW

FLIGHT INFORMATION

Flight Status: Arrived
Operator: Privately registered:
United States
More flights under this callsign
Pilot: Gregory A. (9731)
Aircraft: PIPER PA-46-500TP MALIBU MERIDIAN
(P46T)
More flights by this aircraft type
Origin: KLAM Los Alamos
United States
Destination: KROW Roswell Industrial
United States
More flights between these airports :: More routes between these airports
Route: +CNX J15 HONDS CME
File this flight plan on PilotEdge
Remarks:
Altitude:
(Current/Filed)
290ft
Speed:
(Current/Filed)
274kts
Departed: 30-Jul-18 03:12 PM
Arrived: 30-Jul-18 04:16 PM
Distance/Time
Traveled:
177nm/1:04
Distance/Time
To Go:
Arrived

Flight Plot

Page will automatically refresh every two minutes.

Flight plan parsing failed; only flown route is shown


Map Options




Map Legend


Flown Route
Filed Route
Departure Airport
Arrival Airport
Navaid (VOR, NDB)
Fix

Horizontal Profiles

Position Reports

Time Latitude Longitude Heading Altitude Ground
Speed
30-Jul-18 14:42 35.881758 -106.274422 295 7175ft 0kts
30-Jul-18 14:43 35.881758 -106.274422 295 7175ft 0kts
30-Jul-18 14:44 35.881758 -106.274422 295 7175ft 0kts
30-Jul-18 14:45 35.881758 -106.274422 295 7175ft 0kts
30-Jul-18 14:46 35.881758 -106.274422 295 7175ft 0kts
30-Jul-18 14:47 35.881758 -106.274422 295 7175ft 0kts
30-Jul-18 14:48 35.881758 -106.274422 295 7175ft 0kts
30-Jul-18 14:49 35.881758 -106.274422 295 7175ft 0kts
30-Jul-18 14:50 35.881758 -106.274422 295 7175ft 0kts
30-Jul-18 14:51 35.881758 -106.274422 295 7175ft 0kts
30-Jul-18 14:52 35.881758 -106.274422 295 7175ft 0kts
30-Jul-18 14:53 35.881758 -106.274422 295 7175ft 0kts
30-Jul-18 14:54 35.881758 -106.274422 295 7175ft 0kts
30-Jul-18 14:55 35.881758 -106.274422 295 7175ft 0kts
30-Jul-18 14:56 35.881758 -106.274422 295 7175ft 0kts
30-Jul-18 14:57 35.881758 -106.274423 295 7175ft 0kts
30-Jul-18 14:58 35.881758 -106.274423 295 7175ft 0kts
30-Jul-18 14:59 35.881758 -106.274423 295 7175ft 0kts
30-Jul-18 15:00 35.881758 -106.274422 295 7175ft 0kts
30-Jul-18 15:01 35.881758 -106.274422 295 7175ft 0kts
30-Jul-18 15:02 35.881758 -106.274422 295 7175ft 0kts
30-Jul-18 15:03 35.881758 -106.274422 295 7175ft 0kts
30-Jul-18 15:04 35.881758 -106.274422 295 7175ft 0kts
30-Jul-18 15:05 35.881773 -106.274803 198 7175ft 6kts
30-Jul-18 15:06 35.881485 -106.274950 214 7175ft 0kts
30-Jul-18 15:07 35.881485 -106.274951 214 7175ft 0kts
30-Jul-18 15:08 35.881484 -106.274951 214 7175ft 0kts
30-Jul-18 15:09 35.881483 -106.274952 214 7175ft 0kts
30-Jul-18 15:10 35.881482 -106.274953 214 7175ft 0kts
30-Jul-18 15:11 35.881481 -106.274954 214 7175ft 0kts
30-Jul-18 15:12 35.881068 -106.276618 97 7175ft 38kts
30-Jul-18 15:13 35.865305 -106.248314 161 8258ft 143kts
30-Jul-18 15:14 35.821995 -106.232070 163 10111ft 179kts
30-Jul-18 15:15 35.772721 -106.208167 163 11932ft 202kts
30-Jul-18 15:16 35.719737 -106.177248 169 13841ft 218kts
30-Jul-18 15:17 35.660780 -106.172691 185 15883ft 220kts
30-Jul-18 15:18 35.599535 -106.156133 176 17907ft 226kts
30-Jul-18 15:19 35.540628 -106.134227 176 19912ft 216kts
30-Jul-18 15:20 35.482383 -106.111629 175 21931ft 229kts
30-Jul-18 15:21 35.420767 -106.087822 176 23923ft 231kts
30-Jul-18 15:22 35.360004 -106.063871 175 25834ft 228kts
30-Jul-18 15:23 35.298736 -106.040733 173 27486ft 231kts
30-Jul-18 15:24 35.237698 -106.015780 173 29005ft 239kts
30-Jul-18 15:25 35.168483 -105.989433 171 29199ft 278kts
30-Jul-18 15:26 35.092856 -105.960517 171 29196ft 287kts
30-Jul-18 15:27 35.016363 -105.930641 170 29201ft 290kts
30-Jul-18 15:28 34.939827 -105.899739 170 29197ft 289kts
30-Jul-18 15:29 34.862968 -105.870241 171 29203ft 288kts
30-Jul-18 15:30 34.786450 -105.841112 170 29201ft 288kts
30-Jul-18 15:31 34.709893 -105.811163 169 29206ft 287kts
30-Jul-18 15:32 34.633656 -105.781500 168 29201ft 288kts
30-Jul-18 15:33 34.557472 -105.752507 169 29201ft 287kts
30-Jul-18 15:34 34.481299 -105.722500 168 29199ft 287kts
30-Jul-18 15:35 34.405439 -105.693046 168 29201ft 286kts
30-Jul-18 15:36 34.336056 -105.642180 146 29204ft 296kts
30-Jul-18 15:37 34.271995 -105.578875 144 29138ft 296kts
30-Jul-18 15:38 34.207847 -105.513186 144 28150ft 303kts
30-Jul-18 15:39 34.145109 -105.448297 144 26945ft 290kts
30-Jul-18 15:40 34.084888 -105.386013 145 25745ft 282kts
30-Jul-18 15:41 34.025475 -105.324702 145 24547ft 280kts
30-Jul-18 15:42 33.967744 -105.265138 144 23343ft 266kts
30-Jul-18 15:43 33.911950 -105.207752 144 22144ft 263kts
30-Jul-18 15:44 33.856206 -105.150548 144 20947ft 264kts
30-Jul-18 15:45 33.801792 -105.094570 144 19741ft 247kts
30-Jul-18 15:46 33.750175 -105.041628 145 18542ft 242kts
30-Jul-18 15:47 33.697515 -104.992187 154 17347ft 237kts
30-Jul-18 15:48 33.640657 -104.951525 154 16148ft 238kts
30-Jul-18 15:49 33.584445 -104.909905 153 14950ft 234kts
30-Jul-18 15:50 33.531940 -104.870352 153 13748ft 215kts
30-Jul-18 15:51 33.480709 -104.831903 153 12662ft 223kts
30-Jul-18 15:52 33.427138 -104.791063 151 11667ft 228kts
30-Jul-18 15:53 33.378128 -104.751010 150 11025ft 197kts
30-Jul-18 15:54 33.334281 -104.714087 150 10604ft 190kts
30-Jul-18 15:55 33.290571 -104.679860 156 10195ft 186kts
30-Jul-18 15:56 33.245705 -104.649023 156 9780ft 185kts
30-Jul-18 15:57 33.200951 -104.618239 157 9373ft 186kts
30-Jul-18 15:58 33.153893 -104.586099 156 8971ft 202kts
30-Jul-18 15:59 33.112750 -104.558336 156 8629ft 203kts
30-Jul-18 16:00 33.059384 -104.512273 129 8156ft 209kts
30-Jul-18 16:01 33.073260 -104.465467 26 7827ft 193kts
30-Jul-18 16:02 33.117771 -104.429378 34 7416ft 195kts
30-Jul-18 16:03 33.159053 -104.385985 39 6774ft 205kts
30-Jul-18 16:04 33.203006 -104.333184 48 5723ft 160kts
30-Jul-18 16:05 33.224589 -104.301122 41 5719ft 148kts
30-Jul-18 16:06 33.261138 -104.278218 2 5719ft 150kts
30-Jul-18 16:07 33.301886 -104.283269 343 5715ft 147kts
30-Jul-18 16:08 33.342802 -104.291795 343 5709ft 151kts
30-Jul-18 16:09 33.384262 -104.298161 351 5714ft 150kts
30-Jul-18 16:10 33.424239 -104.305380 317 5725ft 139kts
30-Jul-18 16:11 33.441680 -104.339749 249 5725ft 127kts
30-Jul-18 16:12 33.423986 -104.377260 229 5509ft 139kts
30-Jul-18 16:13 33.393548 -104.409288 219 5212ft 144kts
30-Jul-18 16:14 33.365494 -104.441097 226 5121ft 131kts
30-Jul-18 16:15 33.341906 -104.470223 225 4491ft 120kts
30-Jul-18 16:16 33.318470 -104.498189 224 3917ft 118kts
30-Jul-18 16:17 33.303342 -104.516521 286 3675ft 16kts
30-Jul-18 16:18 33.304876 -104.521041 260 3675ft 14kts
30-Jul-18 16:19 33.305410 -104.523191 279 3675ft 5kts
30-Jul-18 16:20 33.305719 -104.523268 358 3675ft 1kts
30-Jul-18 16:21 33.305785 -104.523270 358 3675ft 0kts
30-Jul-18 16:22 33.305785 -104.523270 358 3675ft 0kts

Navigation Log

Ident Type
Flight plan parsing failed, navigation log unavailable